< Typhoon 200014 2000 Season Typhoon 200016 >
Typhoon 200015 (BOPHA)
General InformationTrack Information on Google MapsDetailed Wind InformationList of All Images || NewsDisaster Info.ResourceGoogle EarthGE AnimationAtom FeedGeoJSON
Detalied Best Track (Time Zone = UTC)
Year Month Day Hour Lat. Long. Pressure (hPa) Wind (kt) Class Image Chart
2000 9 4 06 18.0 125.8 1000 0 2 Image Chart
2000 9 4 12 18.1 127.0 1000 0 2 Image Chart
2000 9 4 18 18.1 128.1 1000 0 2 Image Chart
2000 9 5 00 18.3 129.1 1000 0 2 Image Chart
2000 9 5 06 18.9 130.8 998 0 2 Image Chart
2000 9 5 12 19.4 133.0 998 0 2 Image Chart
2000 9 5 18 20.5 135.0 998 0 2 Image Chart
2000 9 6 00 21.2 135.8 998 0 2 Image Chart
2000 9 6 06 22.1 136.4 996 0 2 Image Chart
2000 9 6 12 22.9 136.4 996 0 2 Image Chart
2000 9 6 18 23.4 136.2 994 35 3 Image Chart
2000 9 7 00 23.8 135.4 994 40 3 Image Chart
2000 9 7 06 24.3 133.4 992 40 3 Image Chart
2000 9 7 12 24.5 132.0 990 45 3 Image Chart
2000 9 7 15 24.6 131.6 990 45 3 Image Chart
2000 9 7 18 24.7 131.2 990 45 3 Image Chart
2000 9 7 21 24.8 130.6 990 45 3 Image Chart
2000 9 8 00 25.0 129.9 990 45 3 Image Chart
2000 9 8 03 25.3 129.4 990 45 3 Image Chart
2000 9 8 06 25.6 128.6 990 45 3 Image Chart
2000 9 8 09 25.8 127.7 990 45 3 Image Chart
2000 9 8 12 25.9 127.0 994 40 3 Image Chart
2000 9 8 15 25.8 126.5 994 40 3 Image Chart
2000 9 8 18 25.7 125.9 994 40 3 Image Chart
2000 9 8 21 25.5 125.4 994 40 3 Image Chart
2000 9 9 00 25.3 125.1 994 40 3 Image Chart
2000 9 9 03 25.0 124.7 994 40 3 Image Chart
2000 9 9 06 24.8 124.4 992 40 3 Image Chart
2000 9 9 09 24.6 124.1 990 45 3 Image Chart
2000 9 9 12 24.3 123.8 988 45 3 Image Chart
2000 9 9 15 23.9 123.5 992 45 3 Image Chart
2000 9 9 18 23.5 123.2 988 45 3 Image Chart
2000 9 10 00 22.4 122.7 990 45 3 Image Chart
2000 9 10 06 21.4 122.2 990 45 3 Image Chart
2000 9 10 12 20.3 121.9 990 45 3 Image Chart
2000 9 10 18 19.2 121.9 990 45 3 Image Chart
2000 9 11 00 18.6 122.1 994 0 2 Image Chart
2000 9 11 06 18.0 122.2 994 0 2 Image Chart
2000 9 11 12 17.3 122.1 998 0 2 Image Chart
Japan Meteorological Agency Best Track Data | Correction Date : 2001-12-21
< Typhoon 200014 2000 Season Typhoon 200016 >

Help